createdAt,value
2022-11-13T00:02:35.853Z,9.50
2022-11-13T00:05:21.711Z,9.82
2022-11-13T00:08:07.272Z,8.93
2022-11-13T00:10:52.545Z,10.65
2022-11-13T00:13:38.447Z,9.98
2022-11-13T00:16:23.794Z,10.10
2022-11-13T00:19:09.242Z,9.57
2022-11-13T00:21:56.897Z,9.25
2022-11-13T00:24:42.220Z,9.65
2022-11-13T00:27:31.180Z,9.40
2022-11-13T00:30:19.443Z,10.20
2022-11-13T00:33:05.311Z,9.15
2022-11-13T00:35:50.707Z,9.55
2022-11-13T00:38:36.377Z,9.57
2022-11-13T00:41:22.436Z,9.65
2022-11-13T00:44:08.101Z,9.68
2022-11-13T00:46:53.482Z,9.27
2022-11-13T00:49:38.872Z,9.95
2022-11-13T00:52:24.283Z,10.00
2022-11-13T00:55:09.874Z,10.95
2022-11-13T00:57:55.333Z,9.45
2022-11-13T01:00:46.004Z,9.98
2022-11-13T01:03:31.481Z,10.65
2022-11-13T01:06:23.434Z,9.38
2022-11-13T01:09:09.631Z,10.15
2022-11-13T01:11:55.148Z,10.88
2022-11-13T01:14:40.440Z,10.88
2022-11-13T01:17:26.373Z,10.60
2022-11-13T01:20:12.377Z,10.82
2022-11-13T01:23:25.777Z,10.98
2022-11-13T01:26:23.886Z,10.50
2022-11-13T01:29:12.668Z,10.35
2022-11-13T01:31:58.040Z,9.93
2022-11-13T01:34:43.545Z,9.88
2022-11-13T01:37:29.477Z,9.20
2022-11-13T01:40:15.513Z,9.32
2022-11-13T01:43:20.110Z,9.38
2022-11-13T01:46:16.914Z,9.38
2022-11-13T01:49:16.127Z,8.77
2022-11-13T01:52:36.277Z,9.25
2022-11-13T01:55:22.261Z,9.35
2022-11-13T01:58:10.346Z,8.68
2022-11-13T02:00:56.061Z,8.80
2022-11-13T02:03:41.617Z,9.38
2022-11-13T02:06:31.028Z,9.90
2022-11-13T02:09:20.517Z,8.95
2022-11-13T02:12:08.831Z,8.50
2022-11-13T02:14:55.524Z,8.25
2022-11-13T02:17:47.207Z,8.35
2022-11-13T02:20:45.376Z,8.93
2022-11-13T02:24:03.785Z,9.23
2022-11-13T02:26:50.938Z,8.82
2022-11-13T02:29:36.729Z,8.90
2022-11-13T02:32:22.483Z,8.27
2022-11-13T02:35:08.196Z,8.63
2022-11-13T02:37:56.449Z,7.65
2022-11-13T02:40:41.965Z,8.93
2022-11-13T02:43:27.728Z,9.30
2022-11-13T02:46:13.499Z,9.05
2022-11-13T02:48:58.952Z,9.20
2022-11-13T02:51:44.316Z,9.25
2022-11-13T02:54:30.006Z,9.52
2022-11-13T02:57:15.482Z,8.82
2022-11-13T03:00:00.933Z,9.25
2022-11-13T03:02:46.323Z,8.05
2022-11-13T03:05:31.772Z,8.73
2022-11-13T03:08:17.670Z,8.50
2022-11-13T03:11:08.887Z,8.65
2022-11-13T03:13:54.407Z,9.35
2022-11-13T03:16:40.112Z,9.32
2022-11-13T03:19:25.601Z,9.50
2022-11-13T03:22:11.058Z,9.48
2022-11-13T03:24:56.540Z,8.77
2022-11-13T03:27:41.896Z,8.65
2022-11-13T03:30:27.864Z,8.63
2022-11-13T03:33:13.598Z,8.88
2022-11-13T03:35:59.395Z,8.60
2022-11-13T03:38:45.247Z,8.70
2022-11-13T03:41:30.923Z,9.27
2022-11-13T03:44:16.544Z,8.40
2022-11-13T03:47:01.865Z,8.93
2022-11-13T03:49:47.400Z,7.97
2022-11-13T03:52:32.769Z,8.90
2022-11-13T03:55:18.024Z,8.50
2022-11-13T03:58:03.800Z,8.98
2022-11-13T04:00:50.254Z,9.13
2022-11-13T04:03:35.889Z,9.20
2022-11-13T04:06:22.041Z,7.97
2022-11-13T04:09:08.072Z,8.60
2022-11-13T04:11:53.735Z,8.10
2022-11-13T04:14:39.051Z,7.40
2022-11-13T04:17:24.347Z,8.40
2022-11-13T04:20:10.260Z,7.78
2022-11-13T04:22:56.886Z,8.73
2022-11-13T04:25:42.358Z,9.55
2022-11-13T04:28:27.965Z,9.85
2022-11-13T04:31:13.555Z,9.73
2022-11-13T04:33:59.268Z,9.10
2022-11-13T04:36:44.541Z,8.07
2022-11-13T04:39:29.863Z,8.55
2022-11-13T04:42:33.571Z,8.50
2022-11-13T04:45:20.948Z,8.07
2022-11-13T04:48:06.423Z,8.68
2022-11-13T04:50:51.789Z,8.27
2022-11-13T04:53:37.421Z,8.40
2022-11-13T04:56:22.889Z,8.73
2022-11-13T04:59:08.527Z,8.63
2022-11-13T05:01:55.853Z,8.88
2022-11-13T05:04:41.246Z,10.02
2022-11-13T05:07:27.664Z,9.95
2022-11-13T05:10:13.283Z,9.32
2022-11-13T05:12:58.957Z,8.25
2022-11-13T05:15:44.324Z,8.85
2022-11-13T05:18:30.615Z,9.27
2022-11-13T05:21:16.338Z,9.50
2022-11-13T05:24:01.820Z,8.32
2022-11-13T05:26:47.078Z,9.77
2022-11-13T05:29:32.762Z,9.65
2022-11-13T05:32:18.179Z,9.55
2022-11-13T05:35:03.704Z,10.13
2022-11-13T05:37:49.081Z,10.50
2022-11-13T05:40:34.641Z,10.40
2022-11-13T05:43:20.381Z,10.35
2022-11-13T05:46:11.380Z,10.70
2022-11-13T05:48:59.306Z,10.93
2022-11-13T05:51:44.572Z,10.77
2022-11-13T05:54:30.194Z,10.57
2022-11-13T05:57:15.783Z,10.50
2022-11-13T06:00:01.352Z,10.07
2022-11-13T06:02:47.120Z,11.48
2022-11-13T06:05:35.399Z,11.10
2022-11-13T06:08:21.056Z,11.63
2022-11-13T06:11:10.351Z,10.93
2022-11-13T06:13:57.025Z,11.02
2022-11-13T06:16:42.623Z,9.98
2022-11-13T06:23:46.742Z,9.90
2022-11-13T06:26:34.935Z,10.55
2022-11-13T06:29:20.561Z,10.52
2022-11-13T06:32:05.975Z,9.70
2022-11-13T06:34:51.681Z,10.00
2022-11-13T06:37:37.063Z,10.85
2022-11-13T06:40:22.670Z,9.85
2022-11-13T06:43:08.072Z,10.00
2022-11-13T06:45:54.424Z,9.55
2022-11-13T06:48:40.095Z,10.13
2022-11-13T06:51:28.417Z,10.10
2022-11-13T06:54:13.731Z,10.95
2022-11-13T06:56:59.335Z,10.07
2022-11-13T06:59:44.924Z,10.85
2022-11-13T07:02:30.176Z,10.05
2022-11-13T07:05:15.976Z,9.57
2022-11-13T07:08:01.184Z,10.63
2022-11-13T07:10:54.942Z,9.77
2022-11-13T07:13:41.312Z,10.52
2022-11-13T07:16:38.912Z,10.30
2022-11-13T07:19:30.401Z,11.27
2022-11-13T07:22:16.226Z,10.32
2022-11-13T07:25:01.870Z,10.82
2022-11-13T07:27:47.252Z,11.75
2022-11-13T07:30:32.959Z,11.50
2022-11-13T07:33:18.734Z,11.63
2022-11-13T07:36:04.544Z,12.40
2022-11-13T07:38:54.608Z,11.82
2022-11-13T07:41:43.345Z,10.85
2022-11-13T07:44:48.366Z,11.50
2022-11-13T07:47:34.576Z,10.90
2022-11-13T07:50:20.206Z,11.18
2022-11-13T07:53:08.171Z,10.57
2022-11-13T07:55:53.544Z,10.93
2022-11-13T07:58:38.904Z,10.05
2022-11-13T08:01:24.697Z,9.38
2022-11-13T08:04:10.125Z,9.25
2022-11-13T08:06:55.735Z,8.52
2022-11-13T08:09:41.241Z,8.60
2022-11-13T08:12:26.576Z,8.48
2022-11-13T08:15:39.019Z,8.20
2022-11-13T08:18:24.484Z,10.50
2022-11-13T08:21:14.685Z,13.23
2022-11-13T08:24:00.376Z,7.45
2022-11-13T08:26:45.822Z,7.13
2022-11-13T08:30:24.386Z,6.57
2022-11-13T08:33:09.604Z,6.18
2022-11-13T08:35:59.714Z,6.43
2022-11-13T08:38:45.211Z,5.80
2022-11-13T08:41:30.367Z,5.95
2022-11-13T08:44:15.848Z,6.13
2022-11-13T08:47:01.352Z,5.50
2022-11-13T08:49:46.728Z,5.95
2022-11-13T08:52:32.183Z,5.97
2022-11-13T08:55:17.780Z,6.03
2022-11-13T08:58:04.815Z,5.60
2022-11-13T09:00:50.117Z,5.57
2022-11-13T09:03:37.107Z,5.80
2022-11-13T09:06:22.535Z,4.97
2022-11-13T09:09:07.810Z,5.80
2022-11-13T09:11:53.455Z,5.35
2022-11-13T09:14:39.143Z,5.85
2022-11-13T09:17:24.830Z,5.53
2022-11-13T09:20:13.821Z,6.07
2022-11-13T09:23:02.281Z,6.45
2022-11-13T09:25:48.399Z,5.70
2022-11-13T09:28:33.944Z,5.72
2022-11-13T09:31:19.348Z,5.45
2022-11-13T09:34:05.414Z,5.20
2022-11-13T09:36:50.772Z,5.22
2022-11-13T09:39:36.374Z,4.80
2022-11-13T09:42:28.708Z,4.97
2022-11-13T09:45:15.710Z,6.25
2022-11-13T09:48:09.374Z,7.15
2022-11-13T09:50:55.707Z,5.20
2022-11-13T09:53:41.885Z,5.45
2022-11-13T09:56:39.792Z,4.95
2022-11-13T09:59:34.656Z,4.82
2022-11-13T10:02:50.366Z,5.03
2022-11-13T10:05:52.087Z,5.57
2022-11-13T10:08:40.961Z,4.85
2022-11-13T10:11:48.553Z,4.57
2022-11-13T10:14:46.128Z,4.22
2022-11-13T10:18:05.938Z,5.07
2022-11-13T10:21:09.323Z,5.15
2022-11-13T10:23:56.837Z,4.40
2022-11-13T10:26:42.315Z,4.65
2022-11-13T10:29:29.890Z,5.00
2022-11-13T10:32:23.255Z,4.80
2022-11-13T10:35:27.116Z,4.53
2022-11-13T10:38:37.374Z,4.20
2022-11-13T10:41:23.026Z,4.13
2022-11-13T10:44:20.310Z,4.70
2022-11-13T10:47:19.867Z,4.95
2022-11-13T10:50:22.409Z,4.63
2022-11-13T10:53:16.996Z,5.00
2022-11-13T10:56:11.588Z,4.88
2022-11-13T10:59:01.541Z,4.72
2022-11-13T11:01:47.847Z,4.80
2022-11-13T11:04:33.445Z,4.40
2022-11-13T11:07:23.073Z,4.60
2022-11-13T11:13:25.383Z,4.78
2022-11-13T11:16:17.610Z,4.25
2022-11-13T11:19:09.371Z,4.38
2022-11-13T11:22:06.040Z,4.75
2022-11-13T11:25:05.183Z,3.95
2022-11-13T11:28:17.684Z,4.38
2022-11-13T11:31:15.464Z,4.10
2022-11-13T11:34:37.073Z,3.92
2022-11-13T11:37:28.192Z,4.00
2022-11-13T11:40:20.983Z,3.90
2022-11-13T11:43:35.581Z,4.13
2022-11-13T11:46:24.574Z,4.07
2022-11-13T11:49:10.981Z,3.40
2022-11-13T11:52:23.156Z,3.80
2022-11-13T11:55:11.919Z,3.65
2022-11-13T11:58:16.527Z,3.17
2022-11-13T12:01:06.846Z,3.90
2022-11-13T12:04:15.114Z,3.20
2022-11-13T12:07:33.271Z,3.40
2022-11-13T12:10:37.382Z,3.47
2022-11-13T12:13:29.672Z,3.55
2022-11-13T12:16:30.146Z,3.28
2022-11-13T12:19:40.379Z,3.20
2022-11-13T12:22:39.575Z,3.20
2022-11-13T12:25:47.399Z,3.13
2022-11-13T12:28:48.169Z,3.20
2022-11-13T12:31:45.855Z,3.03
2022-11-13T12:34:40.343Z,3.50
2022-11-13T12:37:35.837Z,3.17
2022-11-13T12:40:45.321Z,3.60
2022-11-13T12:44:02.602Z,3.28
2022-11-13T12:46:49.707Z,4.00
2022-11-13T12:49:37.026Z,3.70
2022-11-13T12:52:24.567Z,3.80
2022-11-13T12:55:31.364Z,3.60
2022-11-13T12:58:24.794Z,3.22
2022-11-13T13:01:10.161Z,3.38
2022-11-13T13:04:29.523Z,3.28
2022-11-13T13:07:27.570Z,3.15
2022-11-13T13:10:34.480Z,3.10
2022-11-13T13:13:47.720Z,2.92
2022-11-13T13:16:33.556Z,2.85
2022-11-13T13:19:26.967Z,3.00
2022-11-13T13:22:30.775Z,3.60
2022-11-13T13:25:33.699Z,3.50
2022-11-13T13:28:23.787Z,3.40
2022-11-13T13:31:41.761Z,3.13
2022-11-13T13:34:48.987Z,2.97
2022-11-13T13:38:20.785Z,3.17
2022-11-13T13:41:29.464Z,3.53
2022-11-13T13:44:37.771Z,3.72
2022-11-13T13:47:32.031Z,3.65
2022-11-13T13:50:29.704Z,3.80
2022-11-13T13:53:29.170Z,3.42
2022-11-13T13:56:14.907Z,3.38
2022-11-13T13:59:02.315Z,3.60
2022-11-13T14:01:59.956Z,6.72
2022-11-13T14:04:48.253Z,3.65
2022-11-13T14:07:36.008Z,4.72
2022-11-13T14:10:29.088Z,4.10
2022-11-13T14:13:42.013Z,4.97
2022-11-13T14:16:27.906Z,3.42
2022-11-13T14:19:13.279Z,3.40
2022-11-13T14:22:03.967Z,3.30
2022-11-13T14:24:56.979Z,3.40
2022-11-13T14:27:58.820Z,4.60
2022-11-13T14:30:44.847Z,12.77
2022-11-13T14:33:37.641Z,5.55
2022-11-13T14:36:30.148Z,4.15
2022-11-13T14:39:31.595Z,3.80
2022-11-13T14:46:44.487Z,3.67
2022-11-13T14:49:33.758Z,3.50
2022-11-13T14:52:22.021Z,3.70
2022-11-13T14:55:26.030Z,4.07
2022-11-13T14:58:15.013Z,3.42
2022-11-13T15:01:19.315Z,5.57
2022-11-13T15:05:07.617Z,4.30
2022-11-13T15:07:55.079Z,3.78
2022-11-13T15:10:41.291Z,5.90
2022-11-13T15:17:53.890Z,7.82
2022-11-13T15:20:41.375Z,10.98
2022-11-13T15:23:29.679Z,10.13
2022-11-13T15:26:15.524Z,9.13
2022-11-13T15:29:00.879Z,10.82
2022-11-13T15:31:47.939Z,11.10
2022-11-13T15:34:33.256Z,10.93
2022-11-13T15:37:19.019Z,7.03
2022-11-13T15:40:05.014Z,6.55
2022-11-13T15:42:50.720Z,5.43
2022-11-13T15:45:41.230Z,5.57
2022-11-13T15:48:29.285Z,5.05
2022-11-13T15:51:23.008Z,6.63
2022-11-13T15:54:34.040Z,12.07
2022-11-13T15:57:25.703Z,7.45
2022-11-13T16:00:21.548Z,14.45
2022-11-13T16:03:11.746Z,14.65
2022-11-13T16:05:59.140Z,22.45
2022-11-13T16:08:44.981Z,23.45
2022-11-13T16:11:32.463Z,33.63
2022-11-13T16:14:23.399Z,27.08
2022-11-13T16:17:16.750Z,13.63
2022-11-13T16:20:04.511Z,17.50
2022-11-13T16:22:50.793Z,17.52
2022-11-13T16:25:36.071Z,14.82
2022-11-13T16:28:21.872Z,11.82
2022-11-13T16:31:07.336Z,9.73
2022-11-13T16:33:52.693Z,8.82
2022-11-13T16:36:38.375Z,7.20
2022-11-13T16:39:29.878Z,5.35
2022-11-13T16:42:16.582Z,5.00
2022-11-13T16:49:20.322Z,3.55
2022-11-13T16:52:06.100Z,4.43
2022-11-13T16:54:51.659Z,4.43
2022-11-13T16:57:37.396Z,8.13
2022-11-13T17:00:25.480Z,8.05
2022-11-13T17:03:11.370Z,7.32
2022-11-13T17:10:31.460Z,6.50
2022-11-13T17:13:17.787Z,7.10
2022-11-13T17:16:03.351Z,14.65
2022-11-13T17:18:50.797Z,12.52
2022-11-13T17:21:48.781Z,10.55
2022-11-13T17:25:28.169Z,10.45
2022-11-13T17:31:07.333Z,9.82
2022-11-13T17:33:56.732Z,7.97
2022-11-13T17:36:42.641Z,6.65
2022-11-13T17:39:28.506Z,5.85
2022-11-13T17:42:13.978Z,4.53
2022-11-13T17:44:59.369Z,4.50
2022-11-13T17:47:45.019Z,4.60
2022-11-13T17:51:30.964Z,4.70
2022-11-13T17:54:16.380Z,4.72
2022-11-13T17:57:02.376Z,5.03
2022-11-13T17:59:47.754Z,4.82
2022-11-13T18:02:34.221Z,4.65
2022-11-13T18:05:19.554Z,6.78
2022-11-13T18:08:06.212Z,6.82
2022-11-13T18:10:51.768Z,8.20
2022-11-13T18:13:37.470Z,8.55
2022-11-13T18:16:34.489Z,8.15
2022-11-13T18:19:19.952Z,9.15
2022-11-13T18:22:05.411Z,10.95
2022-11-13T18:24:50.717Z,9.07
2022-11-13T18:27:37.339Z,7.25
2022-11-13T18:30:23.304Z,5.82
2022-11-13T18:33:08.872Z,8.80
2022-11-13T18:35:55.994Z,12.77
2022-11-13T18:38:43.376Z,13.77
2022-11-13T18:41:29.602Z,14.10
2022-11-13T18:44:15.008Z,9.13
2022-11-13T18:47:00.290Z,8.90
2022-11-13T18:49:46.068Z,9.65
2022-11-13T18:52:32.840Z,7.88
2022-11-13T18:56:17.133Z,9.30
2022-11-13T18:59:03.057Z,15.10
2022-11-13T19:01:48.714Z,18.00
2022-11-13T19:04:35.436Z,24.13
2022-11-13T19:07:21.031Z,22.75
2022-11-13T19:10:07.379Z,17.52
2022-11-13T19:12:53.077Z,14.00
2022-11-13T19:15:39.233Z,16.55
2022-11-13T19:18:24.642Z,14.18
2022-11-13T19:21:13.196Z,20.55
2022-11-13T19:23:59.820Z,21.88
2022-11-13T19:26:45.985Z,20.70
2022-11-13T19:29:31.489Z,15.40
2022-11-13T19:32:16.847Z,8.65
2022-11-13T19:35:02.232Z,8.35
2022-11-13T19:37:47.659Z,8.65
2022-11-13T19:40:33.167Z,9.30
2022-11-13T19:43:19.185Z,8.25
2022-11-13T19:46:06.768Z,8.20
2022-11-13T19:48:52.509Z,8.95
2022-11-13T19:51:37.625Z,8.73
2022-11-13T19:54:23.106Z,8.00
2022-11-13T19:57:09.053Z,9.57
2022-11-13T19:59:54.454Z,11.00
2022-11-13T20:02:40.232Z,9.25
2022-11-13T20:05:25.536Z,9.20
2022-11-13T20:08:13.820Z,8.45
2022-11-13T20:11:10.197Z,8.05
2022-11-13T20:13:56.229Z,8.57
2022-11-13T20:16:41.948Z,8.63
2022-11-13T20:19:27.276Z,8.45
2022-11-13T20:23:21.723Z,8.63
2022-11-13T20:26:11.702Z,11.18
2022-11-13T20:28:57.383Z,9.90
2022-11-13T20:31:42.799Z,10.18
2022-11-13T20:34:28.220Z,12.45
2022-11-13T20:37:14.996Z,13.00
2022-11-13T20:40:01.074Z,10.15
2022-11-13T20:42:46.484Z,8.10
2022-11-13T20:45:32.084Z,8.80
2022-11-13T20:48:17.670Z,10.30
2022-11-13T20:51:29.708Z,9.80
2022-11-13T20:54:15.130Z,9.23
2022-11-13T20:57:01.217Z,9.65
2022-11-13T20:59:46.811Z,9.52
2022-11-13T21:02:32.180Z,9.60
2022-11-13T21:05:17.797Z,10.05
2022-11-13T21:08:03.400Z,10.85
2022-11-13T21:10:48.759Z,9.93
2022-11-13T21:13:34.589Z,11.10
2022-11-13T21:16:20.368Z,10.70
2022-11-13T21:19:05.758Z,10.45
2022-11-13T21:21:51.419Z,9.63
2022-11-13T21:24:38.022Z,10.63
2022-11-13T21:27:23.384Z,9.70
2022-11-13T21:30:09.159Z,10.05
2022-11-13T21:32:54.744Z,9.10
2022-11-13T21:35:40.169Z,9.23
2022-11-13T21:38:25.772Z,9.23
2022-11-13T21:41:24.577Z,9.15
2022-11-13T21:44:10.932Z,10.05
2022-11-13T21:46:56.416Z,10.52
2022-11-13T21:49:42.354Z,9.60
2022-11-13T21:52:28.160Z,9.98
2022-11-13T21:55:13.579Z,10.10
2022-11-13T21:57:59.044Z,10.27
2022-11-13T22:00:44.601Z,9.73
2022-11-13T22:03:30.754Z,10.70
2022-11-13T22:06:23.159Z,12.60
2022-11-13T22:09:15.605Z,12.13
2022-11-13T22:12:04.870Z,12.05
2022-11-13T22:14:50.217Z,13.27
2022-11-13T22:17:35.676Z,13.93
2022-11-13T22:20:21.451Z,13.10
2022-11-13T22:23:07.124Z,11.93
2022-11-13T22:25:57.923Z,11.57
2022-11-13T22:28:45.883Z,10.48
2022-11-13T22:31:59.728Z,11.70
2022-11-13T22:34:45.109Z,12.02
2022-11-13T22:37:31.819Z,11.13
2022-11-13T22:40:17.263Z,12.00
2022-11-13T22:43:02.697Z,10.73
2022-11-13T22:50:06.509Z,11.55
2022-11-13T22:52:55.071Z,10.32
2022-11-13T22:55:41.048Z,12.10
2022-11-13T22:58:28.036Z,11.52
2022-11-13T23:01:20.587Z,12.55
2022-11-13T23:04:08.246Z,11.38
2022-11-13T23:06:53.678Z,11.57
2022-11-13T23:09:39.176Z,12.15
2022-11-13T23:12:24.760Z,12.45
2022-11-13T23:15:10.604Z,11.65
2022-11-13T23:17:56.336Z,12.07
2022-11-13T23:20:43.147Z,12.98
2022-11-13T23:23:28.768Z,12.48
2022-11-13T23:26:16.036Z,11.30
2022-11-13T23:29:01.340Z,12.70
2022-11-13T23:31:46.744Z,12.77
2022-11-13T23:34:58.118Z,12.40
2022-11-13T23:37:38.017Z,12.50
2022-11-13T23:40:23.533Z,12.32
2022-11-13T23:43:09.040Z,11.52
2022-11-13T23:45:54.467Z,11.77
2022-11-13T23:48:40.334Z,11.52
2022-11-13T23:51:25.893Z,12.45
2022-11-13T23:54:11.412Z,13.52
2022-11-13T23:56:56.915Z,13.07
2022-11-13T23:59:42.576Z,13.75
